createdAt,value
2023-04-09T00:00:25.199Z,30.20
2023-04-09T00:01:24.897Z,29.70
2023-04-09T00:02:24.957Z,28.40
2023-04-09T00:03:25.164Z,30.50
2023-04-09T00:04:24.907Z,30.40
2023-04-09T00:05:24.905Z,29.90
2023-04-09T00:06:24.900Z,29.90
2023-04-09T00:07:24.901Z,30.20
2023-04-09T00:08:24.856Z,29.60
2023-04-09T00:09:24.848Z,30.10
2023-04-09T00:10:24.838Z,30.20
2023-04-09T00:11:24.844Z,30.00
2023-04-09T00:12:24.829Z,30.70
2023-04-09T00:13:35.644Z,31.20
2023-04-09T00:14:24.800Z,30.30
2023-04-09T00:15:31.334Z,31.30
2023-04-09T00:16:24.882Z,31.00
2023-04-09T00:17:24.894Z,30.60
2023-04-09T00:18:24.735Z,31.00
2023-04-09T00:19:24.755Z,31.30
2023-04-09T00:20:24.751Z,31.10
2023-04-09T00:21:24.730Z,30.70
2023-04-09T00:22:24.748Z,30.60
2023-04-09T00:23:24.752Z,31.60
2023-04-09T00:24:24.722Z,30.90
2023-04-09T00:25:24.729Z,31.00
2023-04-09T00:26:24.686Z,30.10
2023-04-09T00:27:24.778Z,31.20
2023-04-09T00:28:24.646Z,32.10
2023-04-09T00:29:24.648Z,30.30
2023-04-09T00:30:24.647Z,31.50
2023-04-09T00:31:24.670Z,31.60
2023-04-09T00:32:24.643Z,32.60
2023-04-09T00:33:24.603Z,33.20
2023-04-09T00:34:24.603Z,33.30
2023-04-09T00:35:24.614Z,31.80
2023-04-09T00:36:26.953Z,32.80
2023-04-09T00:37:24.571Z,33.10
2023-04-09T00:38:24.571Z,32.70
2023-04-09T00:39:24.530Z,32.00
2023-04-09T00:40:24.563Z,33.30
2023-04-09T00:41:24.479Z,33.00
2023-04-09T00:42:24.519Z,31.50
2023-04-09T00:43:24.509Z,31.10
2023-04-09T00:44:24.506Z,30.20
2023-04-09T00:45:24.527Z,30.30
2023-04-09T00:46:24.456Z,31.70
2023-04-09T00:47:24.462Z,30.70
2023-04-09T00:48:24.593Z,31.70
2023-04-09T00:49:24.457Z,32.10
2023-04-09T00:50:24.420Z,32.30
2023-04-09T00:51:24.384Z,31.60
2023-04-09T00:52:24.394Z,31.30
2023-04-09T00:53:24.427Z,31.70
2023-04-09T00:54:24.352Z,30.80
2023-04-09T00:55:24.357Z,31.30
2023-04-09T00:56:24.391Z,32.10
2023-04-09T00:57:24.364Z,32.70
2023-04-09T00:58:24.330Z,32.40
2023-04-09T00:59:24.370Z,32.40
2023-04-09T01:00:24.316Z,30.70
2023-04-09T01:01:24.323Z,29.50
2023-04-09T01:02:24.521Z,31.80
2023-04-09T01:03:24.315Z,33.50
2023-04-09T01:04:24.240Z,32.60
2023-04-09T01:05:24.309Z,31.30
2023-04-09T01:06:24.253Z,29.50
2023-04-09T01:07:24.215Z,29.70
2023-04-09T01:08:24.233Z,30.30
2023-04-09T01:09:24.204Z,30.80
2023-04-09T01:10:24.191Z,31.30
2023-04-09T01:11:24.201Z,32.20
2023-04-09T01:12:24.190Z,33.40
2023-04-09T01:13:24.172Z,32.10
2023-04-09T01:14:24.154Z,30.90
2023-04-09T01:15:24.128Z,31.10
2023-04-09T01:16:24.223Z,33.80
2023-04-09T01:17:24.140Z,33.60
2023-04-09T01:18:24.121Z,33.30
2023-04-09T01:19:24.084Z,31.70
2023-04-09T01:20:24.104Z,33.30
2023-04-09T01:21:24.091Z,31.00
2023-04-09T01:22:24.067Z,28.90
2023-04-09T01:23:24.045Z,33.20
2023-04-09T01:24:24.079Z,30.70
2023-04-09T01:25:24.033Z,29.50
2023-04-09T01:26:24.053Z,31.50
2023-04-09T01:27:24.002Z,32.10
2023-04-09T01:28:24.091Z,30.40
2023-04-09T01:29:24.036Z,34.70
2023-04-09T01:30:24.018Z,34.40
2023-04-09T01:31:23.981Z,33.80
2023-04-09T01:32:23.980Z,31.60
2023-04-09T01:33:23.986Z,35.00
2023-04-09T01:34:23.964Z,32.10
2023-04-09T01:35:23.938Z,30.30
2023-04-09T01:36:23.955Z,29.90
2023-04-09T01:37:23.929Z,28.80
2023-04-09T01:38:23.919Z,26.20
2023-04-09T01:39:23.900Z,25.80
2023-04-09T01:40:23.892Z,25.60
2023-04-09T01:41:23.901Z,25.00
2023-04-09T01:42:23.867Z,24.50
2023-04-09T01:43:23.868Z,23.80
2023-04-09T01:44:23.900Z,23.40
2023-04-09T01:45:23.840Z,24.20
2023-04-09T01:46:23.875Z,22.00
2023-04-09T01:47:23.871Z,22.80
2023-04-09T01:48:23.844Z,23.00
2023-04-09T01:49:23.859Z,24.60
2023-04-09T01:50:23.791Z,24.50
2023-04-09T01:51:23.844Z,25.10
2023-04-09T01:52:23.815Z,27.10
2023-04-09T01:53:23.777Z,26.50
2023-04-09T01:54:23.780Z,24.60
2023-04-09T01:55:23.729Z,24.60
2023-04-09T01:56:23.749Z,28.10
2023-04-09T01:57:23.753Z,28.30
2023-04-09T01:58:23.716Z,26.30
2023-04-09T01:59:23.688Z,26.40
2023-04-09T02:00:23.800Z,25.90
2023-04-09T02:01:23.745Z,26.40
2023-04-09T02:02:23.767Z,26.60
2023-04-09T02:03:23.736Z,26.60
2023-04-09T02:04:23.702Z,27.20
2023-04-09T02:05:23.646Z,27.00
2023-04-09T02:06:23.653Z,27.00
2023-04-09T02:07:23.646Z,27.00
2023-04-09T02:08:23.608Z,27.00
2023-04-09T02:09:23.622Z,24.30
2023-04-09T02:10:23.648Z,24.10
2023-04-09T02:11:23.606Z,23.90
2023-04-09T02:12:23.633Z,24.20
2023-04-09T02:13:23.557Z,25.10
2023-04-09T02:14:23.567Z,26.20
2023-04-09T02:15:23.590Z,32.70
2023-04-09T02:16:23.546Z,30.70
2023-04-09T02:17:23.542Z,29.50
2023-04-09T02:18:23.536Z,30.00
2023-04-09T02:19:23.524Z,29.40
2023-04-09T02:20:23.492Z,28.30
2023-04-09T02:21:23.499Z,27.30
2023-04-09T02:22:23.541Z,24.50
2023-04-09T02:23:23.493Z,25.90
2023-04-09T02:24:23.483Z,24.70
2023-04-09T02:25:23.461Z,24.50
2023-04-09T02:26:23.437Z,26.30
2023-04-09T02:27:23.455Z,26.00
2023-04-09T02:28:23.452Z,26.30
2023-04-09T02:29:23.400Z,26.70
2023-04-09T02:30:23.408Z,26.20
2023-04-09T02:31:23.428Z,27.50
2023-04-09T02:32:23.407Z,24.40
2023-04-09T02:33:23.403Z,23.80
2023-04-09T02:34:23.384Z,23.90
2023-04-09T02:35:23.345Z,23.20
2023-04-09T02:36:23.371Z,22.00
2023-04-09T02:37:23.325Z,22.20
2023-04-09T02:38:23.332Z,21.10
2023-04-09T02:39:23.306Z,25.40
2023-04-09T02:40:23.350Z,21.70
2023-04-09T02:41:23.294Z,23.20
2023-04-09T02:42:23.275Z,20.30
2023-04-09T02:43:23.323Z,19.70
2023-04-09T02:44:23.268Z,21.40
2023-04-09T02:45:23.268Z,18.60
2023-04-09T02:46:23.254Z,19.70
2023-04-09T02:47:23.288Z,22.50
2023-04-09T02:48:23.225Z,20.60
2023-04-09T02:49:23.211Z,20.40
2023-04-09T02:50:23.221Z,20.90
2023-04-09T02:51:23.200Z,22.00
2023-04-09T02:52:23.189Z,20.40
2023-04-09T02:53:23.201Z,19.90
2023-04-09T02:54:23.147Z,19.90
2023-04-09T02:55:23.173Z,20.30
2023-04-09T02:56:23.162Z,21.00
2023-04-09T02:57:23.108Z,27.40
2023-04-09T02:58:23.141Z,27.40
2023-04-09T02:59:23.100Z,23.80
2023-04-09T03:00:23.122Z,24.00
2023-04-09T03:01:23.155Z,24.40
2023-04-09T03:02:23.421Z,25.40
2023-04-09T03:03:23.161Z,27.00
2023-04-09T03:04:23.143Z,25.80
2023-04-09T03:05:23.059Z,25.70
2023-04-09T03:06:23.063Z,25.40
2023-04-09T03:07:23.018Z,26.00
2023-04-09T03:08:23.052Z,25.20
2023-04-09T03:09:23.004Z,27.50
2023-04-09T03:10:23.041Z,30.70
2023-04-09T03:11:23.006Z,29.50
2023-04-09T03:12:22.988Z,28.30
2023-04-09T03:13:22.976Z,29.20
2023-04-09T03:14:22.967Z,28.50
2023-04-09T03:15:22.969Z,30.50
2023-04-09T03:16:22.991Z,30.00
2023-04-09T03:17:22.911Z,30.00
2023-04-09T03:18:22.935Z,29.50
2023-04-09T03:19:22.918Z,31.00
2023-04-09T03:20:22.914Z,33.40
2023-04-09T03:21:22.981Z,32.40
2023-04-09T03:22:22.902Z,34.20
2023-04-09T03:23:22.887Z,36.40
2023-04-09T03:24:22.884Z,36.80
2023-04-09T03:25:22.849Z,38.60
2023-04-09T03:26:22.839Z,37.40
2023-04-09T03:27:22.837Z,37.20
2023-04-09T03:28:22.823Z,36.00
2023-04-09T03:29:22.820Z,35.90
2023-04-09T03:30:22.803Z,35.10
2023-04-09T03:31:22.918Z,35.90
2023-04-09T03:32:22.803Z,33.20
2023-04-09T03:33:22.804Z,33.50
2023-04-09T03:34:22.764Z,34.40
2023-04-09T03:35:22.757Z,33.10
2023-04-09T03:36:22.779Z,33.30
2023-04-09T03:37:22.745Z,31.80
2023-04-09T03:38:22.728Z,31.90
2023-04-09T03:39:22.764Z,32.70
2023-04-09T03:40:22.690Z,39.60
2023-04-09T03:41:22.713Z,35.50
2023-04-09T03:42:22.694Z,35.50
2023-04-09T03:43:22.690Z,36.80
2023-04-09T03:44:22.693Z,32.00
2023-04-09T03:45:22.693Z,31.70
2023-04-09T03:46:22.699Z,33.00
2023-04-09T03:47:22.744Z,30.00
2023-04-09T03:48:22.672Z,32.40
2023-04-09T03:49:22.600Z,35.90
2023-04-09T03:50:22.588Z,35.30
2023-04-09T03:51:22.583Z,39.30
2023-04-09T03:52:22.601Z,32.50
2023-04-09T03:53:22.577Z,28.00
2023-04-09T03:54:22.582Z,25.50
2023-04-09T03:55:22.547Z,23.00
2023-04-09T03:56:22.574Z,24.90
2023-04-09T03:57:22.564Z,23.20
2023-04-09T03:58:22.499Z,22.00
2023-04-09T03:59:22.540Z,22.60
2023-04-09T04:00:22.511Z,20.90
2023-04-09T04:01:22.511Z,20.00
2023-04-09T04:02:22.628Z,19.40
2023-04-09T04:03:22.582Z,19.70
2023-04-09T04:04:23.725Z,20.40
2023-04-09T04:05:22.480Z,21.30
2023-04-09T04:06:22.448Z,22.80
2023-04-09T04:07:22.442Z,22.00
2023-04-09T04:08:22.428Z,20.60
2023-04-09T04:09:22.399Z,26.60
2023-04-09T04:10:22.367Z,26.40
2023-04-09T04:11:22.381Z,33.60
2023-04-09T04:12:22.367Z,28.00
2023-04-09T04:13:23.073Z,21.40
2023-04-09T04:14:22.325Z,19.70
2023-04-09T04:15:22.290Z,21.20
2023-04-09T04:16:22.293Z,18.40
2023-04-09T04:17:22.324Z,19.90
2023-04-09T04:18:22.250Z,19.90
2023-04-09T04:19:22.226Z,21.40
2023-04-09T04:20:22.297Z,21.00
2023-04-09T04:21:22.221Z,20.00
2023-04-09T04:22:23.673Z,23.20
2023-04-09T04:23:22.209Z,21.70
2023-04-09T04:24:22.220Z,21.40
2023-04-09T04:25:22.194Z,21.70
2023-04-09T04:26:22.166Z,20.80
2023-04-09T04:27:22.161Z,20.60
2023-04-09T04:28:22.462Z,21.90
2023-04-09T04:29:22.167Z,21.80
2023-04-09T04:30:22.137Z,23.00
2023-04-09T04:31:22.187Z,21.20
2023-04-09T04:32:22.108Z,21.50
2023-04-09T04:33:22.146Z,20.40
2023-04-09T04:34:22.084Z,20.30
2023-04-09T04:35:22.138Z,19.10
2023-04-09T04:36:22.130Z,22.90
2023-04-09T04:37:22.080Z,19.10
2023-04-09T04:38:22.066Z,22.10
2023-04-09T04:39:22.089Z,21.50
2023-04-09T04:40:22.022Z,21.50
2023-04-09T04:41:22.053Z,20.80
2023-04-09T04:42:22.005Z,21.00
2023-04-09T04:43:22.022Z,19.10
2023-04-09T04:44:21.985Z,19.60
2023-04-09T04:45:22.007Z,19.80
2023-04-09T04:46:22.042Z,19.70
2023-04-09T04:47:22.029Z,19.40
2023-04-09T04:48:21.985Z,20.50
2023-04-09T04:49:21.972Z,20.40
2023-04-09T04:50:21.931Z,20.30
2023-04-09T04:51:22.007Z,21.10
2023-04-09T04:52:22.013Z,20.70
2023-04-09T04:53:21.898Z,21.00
2023-04-09T04:54:21.909Z,20.70
2023-04-09T04:55:21.916Z,18.70
2023-04-09T04:56:21.906Z,19.90
2023-04-09T04:57:21.875Z,19.80
2023-04-09T04:58:21.889Z,21.50
2023-04-09T04:59:21.876Z,21.40
2023-04-09T05:00:21.812Z,21.00
2023-04-09T05:01:21.914Z,20.50
2023-04-09T05:02:21.939Z,20.20
2023-04-09T05:03:21.953Z,20.10
2023-04-09T05:04:21.786Z,20.70
2023-04-09T05:05:21.806Z,21.20
2023-04-09T05:06:21.761Z,20.60
2023-04-09T05:07:21.799Z,19.60
2023-04-09T05:08:21.776Z,20.20
2023-04-09T05:09:22.408Z,22.60
2023-04-09T05:10:21.735Z,23.30
2023-04-09T05:11:21.755Z,20.10
2023-04-09T05:12:21.703Z,21.40
2023-04-09T05:13:21.725Z,24.50
2023-04-09T05:14:21.674Z,21.90
2023-04-09T05:15:21.714Z,20.50
2023-04-09T05:16:21.679Z,20.70
2023-04-09T05:17:21.716Z,19.30
2023-04-09T05:18:21.677Z,20.40
2023-04-09T05:19:21.656Z,19.60
2023-04-09T05:20:21.674Z,21.10
2023-04-09T05:21:21.686Z,21.30
2023-04-09T05:22:21.615Z,21.70
2023-04-09T05:23:21.599Z,24.00
2023-04-09T05:24:21.590Z,21.40
2023-04-09T05:25:21.590Z,22.20
2023-04-09T05:26:21.611Z,21.50
2023-04-09T05:27:21.589Z,21.40
2023-04-09T05:28:21.561Z,21.50
2023-04-09T05:29:21.584Z,22.70
2023-04-09T05:30:21.560Z,20.30
2023-04-09T05:31:21.553Z,21.10
2023-04-09T05:32:21.523Z,22.30
2023-04-09T05:33:21.507Z,21.40
2023-04-09T05:34:21.522Z,21.50
2023-04-09T05:35:21.499Z,21.10
2023-04-09T05:36:21.504Z,23.00
2023-04-09T05:37:21.497Z,24.00
2023-04-09T05:38:21.444Z,22.50
2023-04-09T05:39:21.468Z,23.80
2023-04-09T05:40:21.437Z,22.40
2023-04-09T05:41:21.428Z,26.90
2023-04-09T05:42:21.416Z,22.70
2023-04-09T05:43:21.421Z,25.00
2023-04-09T05:44:21.418Z,24.50
2023-04-09T05:45:21.432Z,23.70
2023-04-09T05:46:21.406Z,23.30
2023-04-09T05:47:21.419Z,23.60
2023-04-09T05:48:21.389Z,22.50
2023-04-09T05:49:21.345Z,23.10
2023-04-09T05:50:21.338Z,25.70
2023-04-09T05:51:21.325Z,28.10
2023-04-09T05:52:21.298Z,28.70
2023-04-09T05:53:21.320Z,30.40
2023-04-09T05:54:21.291Z,27.70
2023-04-09T05:55:21.306Z,25.30
2023-04-09T05:56:21.254Z,29.20
2023-04-09T05:57:21.265Z,29.40
2023-04-09T05:58:21.281Z,30.60
2023-04-09T05:59:21.258Z,32.40
2023-04-09T06:00:21.264Z,32.00
2023-04-09T06:01:21.230Z,33.00
2023-04-09T06:02:21.407Z,34.10
2023-04-09T06:03:21.356Z,39.10
2023-04-09T06:04:21.340Z,36.70
2023-04-09T06:05:21.246Z,40.20
2023-04-09T06:06:21.205Z,39.00
2023-04-09T06:07:21.253Z,39.90
2023-04-09T06:08:21.176Z,40.30
2023-04-09T06:09:21.186Z,48.00
2023-04-09T06:10:21.143Z,51.50
2023-04-09T06:11:21.109Z,51.60
2023-04-09T06:12:21.109Z,53.90
2023-04-09T06:13:21.138Z,54.40
2023-04-09T06:14:21.067Z,55.30
2023-04-09T06:15:21.064Z,54.70
2023-04-09T06:16:21.139Z,60.30
2023-04-09T06:17:21.145Z,55.00
2023-04-09T06:18:21.053Z,52.90
2023-04-09T06:19:21.053Z,58.80
2023-04-09T06:20:21.086Z,59.00
2023-04-09T06:21:21.027Z,58.80
2023-04-09T06:22:21.037Z,57.30
2023-04-09T06:23:21.014Z,52.50
2023-04-09T06:24:20.983Z,59.40
2023-04-09T06:25:21.013Z,59.90
2023-04-09T06:26:21.571Z,59.10
2023-04-09T06:27:20.973Z,58.50
2023-04-09T06:28:20.959Z,56.80
2023-04-09T06:29:23.169Z,54.70
2023-04-09T06:30:20.950Z,54.90
2023-04-09T06:31:20.963Z,56.80
2023-04-09T06:32:20.901Z,56.50
2023-04-09T06:33:20.929Z,55.40
2023-04-09T06:34:20.889Z,54.40
2023-04-09T06:35:20.890Z,53.10
2023-04-09T06:36:20.905Z,54.80
2023-04-09T06:37:20.918Z,53.70
2023-04-09T06:38:20.843Z,54.40
2023-04-09T06:39:20.865Z,53.60
2023-04-09T06:40:22.902Z,52.90
2023-04-09T06:41:20.838Z,53.90
2023-04-09T06:42:20.801Z,53.10
2023-04-09T06:43:20.821Z,52.80
2023-04-09T06:44:20.834Z,52.00
2023-04-09T06:45:20.764Z,48.90
2023-04-09T06:46:20.814Z,49.90
2023-04-09T06:47:20.766Z,48.60
2023-04-09T06:48:20.750Z,50.60
2023-04-09T06:49:20.892Z,48.10
2023-04-09T06:50:20.753Z,49.40
2023-04-09T06:51:20.709Z,46.10
2023-04-09T06:52:20.700Z,46.40
2023-04-09T06:53:20.798Z,46.90
2023-04-09T06:54:20.722Z,45.00
2023-04-09T06:55:20.689Z,42.60
2023-04-09T06:56:20.668Z,44.40
2023-04-09T06:57:20.635Z,44.10
2023-04-09T06:58:20.687Z,41.50
2023-04-09T06:59:20.639Z,40.90
2023-04-09T07:00:20.623Z,40.90
2023-04-09T07:01:20.612Z,41.90
2023-04-09T07:02:20.686Z,41.50
2023-04-09T07:03:20.740Z,43.10
2023-04-09T07:04:20.686Z,41.80
2023-04-09T07:05:20.573Z,41.60
2023-04-09T07:06:20.620Z,41.90
2023-04-09T07:07:20.568Z,41.20
2023-04-09T07:08:20.561Z,41.40
2023-04-09T07:09:20.533Z,40.00
2023-04-09T07:10:20.520Z,39.80
2023-04-09T07:11:20.507Z,37.80
2023-04-09T07:12:20.548Z,37.30
2023-04-09T07:13:20.518Z,35.60
2023-04-09T07:14:20.475Z,36.80
2023-04-09T07:15:20.472Z,34.70
2023-04-09T07:16:20.475Z,37.40
2023-04-09T07:17:20.470Z,36.80
2023-04-09T07:18:20.448Z,35.20
2023-04-09T07:19:20.486Z,35.10
2023-04-09T07:20:20.714Z,33.90
2023-04-09T07:21:20.460Z,34.40
2023-04-09T07:22:20.409Z,34.20
2023-04-09T07:23:20.393Z,33.90
2023-04-09T07:24:20.374Z,35.60
2023-04-09T07:25:20.417Z,32.60
2023-04-09T07:26:20.381Z,33.90
2023-04-09T07:27:20.353Z,34.70
2023-04-09T07:28:20.337Z,33.20
2023-04-09T07:29:20.807Z,32.50
2023-04-09T07:30:20.346Z,33.70
2023-04-09T07:31:20.353Z,32.60
2023-04-09T07:32:20.318Z,33.40
2023-04-09T07:33:20.378Z,30.50
2023-04-09T07:34:20.282Z,30.30
2023-04-09T07:35:20.312Z,30.10
2023-04-09T07:36:20.292Z,30.70
2023-04-09T07:37:20.256Z,30.70
2023-04-09T07:38:20.275Z,29.20
2023-04-09T07:39:20.228Z,29.30
2023-04-09T07:40:20.249Z,29.60
2023-04-09T07:41:20.200Z,28.20
2023-04-09T07:42:20.270Z,29.60
2023-04-09T07:43:21.474Z,28.10
2023-04-09T07:44:20.177Z,28.00
2023-04-09T07:45:20.190Z,28.20
2023-04-09T07:46:20.252Z,26.60
2023-04-09T07:47:20.198Z,26.30
2023-04-09T07:48:20.155Z,26.30
2023-04-09T07:49:20.141Z,25.20
2023-04-09T07:50:20.161Z,25.80
2023-04-09T07:51:20.121Z,25.90
2023-04-09T07:52:20.126Z,24.90
2023-04-09T07:53:20.081Z,24.00
2023-04-09T07:54:20.112Z,24.70
2023-04-09T07:55:20.088Z,24.60
2023-04-09T07:56:20.124Z,23.80
2023-04-09T07:57:20.106Z,24.00
2023-04-09T07:58:20.058Z,24.10
2023-04-09T07:59:20.078Z,24.40
2023-04-09T08:00:20.032Z,23.60
2023-04-09T08:01:20.025Z,21.70
2023-04-09T08:02:20.095Z,22.60
2023-04-09T08:03:20.267Z,21.90
2023-04-09T08:04:20.136Z,22.40
2023-04-09T08:05:20.300Z,23.00
2023-04-09T08:06:19.951Z,22.20
2023-04-09T08:07:19.960Z,22.30
2023-04-09T08:08:19.953Z,23.40
2023-04-09T08:09:19.914Z,21.40
2023-04-09T08:10:19.907Z,21.90
2023-04-09T08:11:19.910Z,21.80
2023-04-09T08:12:19.930Z,22.20
2023-04-09T08:13:20.233Z,22.10
2023-04-09T08:14:19.865Z,22.00
2023-04-09T08:15:19.853Z,21.40
2023-04-09T08:16:19.888Z,21.60
2023-04-09T08:17:19.859Z,21.40
2023-04-09T08:18:19.858Z,20.80
2023-04-09T08:19:19.863Z,20.70
2023-04-09T08:20:19.830Z,21.90
2023-04-09T08:21:19.836Z,21.30
2023-04-09T08:22:19.832Z,21.00
2023-04-09T08:23:19.790Z,20.30
2023-04-09T08:24:19.774Z,20.30
2023-04-09T08:25:19.750Z,20.20
2023-04-09T08:26:19.804Z,20.50
2023-04-09T08:27:19.754Z,19.90
2023-04-09T08:28:19.765Z,20.20
2023-04-09T08:29:19.715Z,20.50
2023-04-09T08:30:19.752Z,20.30
2023-04-09T08:31:19.738Z,19.50
2023-04-09T08:32:19.882Z,20.60
2023-04-09T08:33:19.685Z,19.40
2023-04-09T08:34:19.747Z,20.40
2023-04-09T08:35:19.677Z,19.20
2023-04-09T08:36:19.676Z,18.80
2023-04-09T08:37:19.631Z,19.10
2023-04-09T08:38:19.673Z,19.30
2023-04-09T08:39:20.209Z,19.20
2023-04-09T08:40:19.617Z,19.40
2023-04-09T08:41:19.592Z,19.30
2023-04-09T08:42:19.583Z,19.10
2023-04-09T08:43:19.568Z,19.10
2023-04-09T08:44:19.599Z,19.50
2023-04-09T08:45:19.566Z,18.80
2023-04-09T08:46:19.616Z,18.70
2023-04-09T08:47:19.529Z,19.90
2023-04-09T08:48:19.641Z,18.80
2023-04-09T08:49:19.555Z,19.50
2023-04-09T08:50:19.515Z,18.90
2023-04-09T08:51:19.506Z,17.70
2023-04-09T08:52:19.518Z,19.70
2023-04-09T08:53:19.490Z,19.50
2023-04-09T08:54:19.487Z,18.20
2023-04-09T08:55:19.474Z,18.50
2023-04-09T08:56:19.505Z,18.50
2023-04-09T08:57:19.424Z,17.70
2023-04-09T08:58:19.441Z,18.60
2023-04-09T08:59:19.409Z,17.90
2023-04-09T09:00:19.414Z,17.70
2023-04-09T09:01:19.409Z,17.30
2023-04-09T09:02:19.405Z,17.20
2023-04-09T09:03:19.450Z,16.20
2023-04-09T09:04:19.428Z,16.30
2023-04-09T09:05:19.413Z,16.50
2023-04-09T09:06:19.326Z,15.30
2023-04-09T09:07:19.323Z,16.00
2023-04-09T09:08:19.320Z,15.80
2023-04-09T09:09:19.331Z,16.30
2023-04-09T09:10:19.293Z,15.20
2023-04-09T09:11:19.299Z,15.70
2023-04-09T09:12:19.292Z,14.40
2023-04-09T09:13:19.262Z,13.90
2023-04-09T09:14:19.348Z,14.20
2023-04-09T09:15:19.225Z,13.60
2023-04-09T09:16:19.284Z,13.40
2023-04-09T09:17:19.312Z,14.30
2023-04-09T09:18:19.223Z,14.20
2023-04-09T09:19:19.193Z,13.60
2023-04-09T09:20:19.269Z,13.70
2023-04-09T09:21:19.172Z,13.70
2023-04-09T09:22:19.188Z,13.20
2023-04-09T09:23:19.178Z,12.20
2023-04-09T09:24:19.142Z,12.90
2023-04-09T09:25:19.158Z,12.80
2023-04-09T09:26:19.131Z,12.80
2023-04-09T09:27:19.161Z,12.50
2023-04-09T09:28:19.095Z,11.40
2023-04-09T09:29:19.094Z,11.10
2023-04-09T09:30:19.125Z,9.90
2023-04-09T09:31:19.110Z,10.00
2023-04-09T09:32:19.101Z,9.60
2023-04-09T09:33:19.037Z,10.50
2023-04-09T09:34:19.068Z,11.20
2023-04-09T09:35:19.045Z,9.70
2023-04-09T09:36:19.048Z,10.00
2023-04-09T09:37:19.033Z,9.40
2023-04-09T09:38:19.051Z,8.90
2023-04-09T09:39:19.002Z,7.60
2023-04-09T09:40:19.020Z,8.30
2023-04-09T09:41:18.962Z,7.80
2023-04-09T09:42:18.965Z,8.00
2023-04-09T09:43:18.998Z,8.10
2023-04-09T09:44:18.976Z,8.20
2023-04-09T09:45:18.945Z,8.20
2023-04-09T09:46:18.990Z,8.90
2023-04-09T09:47:18.919Z,9.10
2023-04-09T09:48:18.918Z,9.00
2023-04-09T09:49:18.911Z,9.20
2023-04-09T09:50:18.887Z,9.50
2023-04-09T09:51:18.863Z,8.90
2023-04-09T09:52:18.857Z,8.80
2023-04-09T09:53:18.876Z,8.70
2023-04-09T09:54:18.853Z,9.00
2023-04-09T09:55:18.818Z,9.50
2023-04-09T09:56:18.919Z,10.50
2023-04-09T09:57:18.854Z,11.00
2023-04-09T09:58:18.860Z,11.10
2023-04-09T09:59:18.832Z,10.30
2023-04-09T10:00:19.483Z,10.20
2023-04-09T10:01:18.796Z,11.00
2023-04-09T10:02:18.930Z,10.20
2023-04-09T10:03:18.824Z,11.20
2023-04-09T10:04:18.758Z,9.90
2023-04-09T10:05:18.736Z,10.30
2023-04-09T10:06:18.801Z,10.60
2023-04-09T10:07:18.759Z,10.00
2023-04-09T10:08:18.708Z,10.20
2023-04-09T10:09:18.674Z,10.40
2023-04-09T10:10:18.750Z,9.90
2023-04-09T10:11:18.705Z,8.90
2023-04-09T10:12:18.670Z,8.90
2023-04-09T10:13:18.725Z,8.90
2023-04-09T10:14:18.640Z,8.90
2023-04-09T10:15:18.637Z,8.50
2023-04-09T10:16:18.745Z,9.10
2023-04-09T10:17:18.696Z,8.80
2023-04-09T10:18:18.603Z,8.60
2023-04-09T10:19:18.979Z,8.70
2023-04-09T10:20:18.721Z,9.10
2023-04-09T10:21:18.562Z,8.90
2023-04-09T10:22:18.560Z,8.70
2023-04-09T10:23:18.519Z,8.80
2023-04-09T10:24:18.594Z,9.10
2023-04-09T10:25:18.509Z,9.10
2023-04-09T10:26:18.536Z,9.10
2023-04-09T10:27:18.621Z,9.10
2023-04-09T10:28:18.503Z,8.70
2023-04-09T10:29:18.482Z,9.10
2023-04-09T10:30:18.528Z,8.70
2023-04-09T10:31:18.539Z,8.40
2023-04-09T10:32:18.449Z,8.40
2023-04-09T10:33:19.220Z,8.50
2023-04-09T10:34:18.478Z,8.80
2023-04-09T10:35:18.434Z,8.40
2023-04-09T10:36:18.449Z,8.10
2023-04-09T10:37:18.729Z,8.00
2023-04-09T10:38:18.389Z,7.60
2023-04-09T10:39:18.362Z,8.20
2023-04-09T10:40:18.393Z,7.60
2023-04-09T10:41:18.352Z,6.40
2023-04-09T10:42:18.418Z,6.30
2023-04-09T10:43:18.322Z,6.40
2023-04-09T10:44:18.337Z,6.80
2023-04-09T10:45:18.884Z,6.50
2023-04-09T10:46:18.322Z,7.00
2023-04-09T10:47:18.314Z,6.90
2023-04-09T10:48:18.352Z,6.40
2023-04-09T10:49:18.301Z,6.90
2023-04-09T10:50:18.255Z,6.80
2023-04-09T10:51:18.239Z,6.70
2023-04-09T10:52:18.240Z,7.20
2023-04-09T10:53:18.238Z,7.00
2023-04-09T10:54:18.237Z,7.10
2023-04-09T10:55:18.221Z,7.00
2023-04-09T10:56:18.216Z,7.40
2023-04-09T10:57:18.327Z,7.30
2023-04-09T10:58:18.261Z,7.30
2023-04-09T10:59:18.193Z,7.00
2023-04-09T11:00:18.149Z,6.80
2023-04-09T11:01:18.147Z,7.50
2023-04-09T11:02:18.298Z,7.50
2023-04-09T11:03:18.302Z,7.20
2023-04-09T11:04:18.176Z,7.60
2023-04-09T11:05:18.169Z,8.00
2023-04-09T11:06:18.153Z,7.50
2023-04-09T11:07:18.104Z,7.30
2023-04-09T11:08:18.083Z,8.20
2023-04-09T11:09:18.112Z,8.30
2023-04-09T11:10:18.079Z,7.70
2023-04-09T11:11:18.041Z,7.20
2023-04-09T11:12:18.189Z,7.70
2023-04-09T11:13:18.019Z,8.10
2023-04-09T11:14:18.024Z,7.80
2023-04-09T11:15:18.222Z,7.60
2023-04-09T11:16:22.946Z,8.20
2023-04-09T11:17:18.009Z,7.90
2023-04-09T11:18:17.974Z,7.60
2023-04-09T11:19:18.010Z,7.60
2023-04-09T11:20:17.965Z,7.40
2023-04-09T11:21:17.976Z,7.50
2023-04-09T11:22:17.961Z,7.10
2023-04-09T11:23:17.931Z,7.40
2023-04-09T11:24:17.916Z,8.10
2023-04-09T11:25:17.877Z,8.50
2023-04-09T11:26:17.918Z,8.10
2023-04-09T11:27:17.878Z,7.40
2023-04-09T11:28:17.843Z,7.40
2023-04-09T11:29:17.924Z,8.00
2023-04-09T11:30:17.865Z,7.90
2023-04-09T11:31:18.423Z,8.40
2023-04-09T11:32:17.861Z,7.80
2023-04-09T11:33:19.987Z,7.90
2023-04-09T11:34:17.811Z,7.30
2023-04-09T11:35:17.833Z,7.90
2023-04-09T11:36:17.876Z,7.50
2023-04-09T11:37:17.774Z,7.60
2023-04-09T11:38:17.754Z,7.10
2023-04-09T11:39:17.728Z,7.10
2023-04-09T11:40:17.784Z,7.00
2023-04-09T11:41:17.738Z,7.50
2023-04-09T11:42:17.769Z,7.40
2023-04-09T11:43:17.965Z,7.70
2023-04-09T11:44:17.712Z,8.00
2023-04-09T11:45:17.759Z,7.90
2023-04-09T11:46:17.726Z,8.00
2023-04-09T11:47:17.687Z,7.80
2023-04-09T11:48:17.661Z,7.30
2023-04-09T11:49:17.655Z,7.60
2023-04-09T11:50:17.637Z,8.60
2023-04-09T11:51:17.605Z,8.20
2023-04-09T11:52:17.630Z,7.90
2023-04-09T11:53:17.643Z,8.30
2023-04-09T11:54:17.587Z,7.90
2023-04-09T11:55:17.577Z,7.60
2023-04-09T11:56:17.867Z,7.90
2023-04-09T11:57:17.627Z,7.90
2023-04-09T11:58:17.582Z,7.30
2023-04-09T11:59:17.542Z,7.90
2023-04-09T12:00:17.546Z,7.40
2023-04-09T12:01:17.546Z,7.50
2023-04-09T12:02:17.717Z,7.70
2023-04-09T12:03:17.767Z,7.60
2023-04-09T12:04:17.650Z,7.50
2023-04-09T12:05:17.543Z,7.20
2023-04-09T12:06:17.488Z,7.50
2023-04-09T12:07:17.447Z,7.80
2023-04-09T12:08:17.466Z,6.90
2023-04-09T12:09:17.464Z,6.90
2023-04-09T12:10:17.445Z,7.40
2023-04-09T12:11:17.464Z,7.40
2023-04-09T12:12:17.439Z,7.50
2023-04-09T12:13:17.460Z,7.70
2023-04-09T12:14:17.406Z,7.70
2023-04-09T12:15:17.380Z,8.00
2023-04-09T12:16:17.441Z,7.50
2023-04-09T12:17:17.373Z,7.30
2023-04-09T12:18:17.374Z,7.60
2023-04-09T12:19:17.375Z,8.80
2023-04-09T12:20:17.315Z,9.40
2023-04-09T12:21:19.113Z,7.60
2023-04-09T12:22:17.339Z,7.20
2023-04-09T12:23:17.309Z,7.30
2023-04-09T12:24:17.307Z,7.50
2023-04-09T12:25:17.366Z,7.90
2023-04-09T12:26:17.290Z,7.90
2023-04-09T12:27:17.296Z,8.00
2023-04-09T12:28:17.258Z,7.60
2023-04-09T12:29:17.266Z,7.60
2023-04-09T12:30:17.265Z,8.10
2023-04-09T12:31:17.293Z,7.70
2023-04-09T12:32:17.361Z,7.40
2023-04-09T12:33:17.262Z,7.30
2023-04-09T12:34:17.254Z,7.60
2023-04-09T12:35:17.192Z,7.10
2023-04-09T12:36:17.181Z,7.60
2023-04-09T12:37:17.218Z,7.30
2023-04-09T12:38:17.137Z,7.50
2023-04-09T12:39:18.189Z,8.30
2023-04-09T12:40:17.173Z,8.00
2023-04-09T12:41:17.268Z,8.40
2023-04-09T12:42:17.120Z,8.00
2023-04-09T12:43:17.112Z,8.00
2023-04-09T12:44:17.105Z,7.50
2023-04-09T12:45:17.095Z,8.10
2023-04-09T12:46:17.145Z,7.20
2023-04-09T12:47:17.232Z,7.40
2023-04-09T12:48:17.297Z,6.70
2023-04-09T12:49:17.300Z,7.10
2023-04-09T12:50:17.169Z,7.20
2023-04-09T12:51:17.084Z,7.10
2023-04-09T12:52:17.012Z,7.00
2023-04-09T12:53:17.046Z,7.00
2023-04-09T12:54:17.461Z,7.50
2023-04-09T12:55:17.054Z,7.20
2023-04-09T12:56:17.047Z,7.70
2023-04-09T12:57:17.324Z,7.60
2023-04-09T12:58:17.850Z,7.50